createdAt,value
2018-03-22T00:00:22.406Z,0
2018-03-22T00:01:02.777Z,0
2018-03-22T00:01:43.180Z,0
2018-03-22T00:02:23.577Z,0
2018-03-22T00:03:03.970Z,0
2018-03-22T00:03:44.386Z,0
2018-03-22T00:04:24.774Z,0
2018-03-22T00:05:05.169Z,0
2018-03-22T00:05:45.559Z,0
2018-03-22T00:06:25.977Z,0
2018-03-22T00:07:06.373Z,0
2018-03-22T00:07:46.777Z,0
2018-03-22T00:08:27.188Z,0
2018-03-22T00:09:07.556Z,0
2018-03-22T00:09:47.980Z,0
2018-03-22T00:10:28.362Z,0
2018-03-22T00:11:08.762Z,0
2018-03-22T00:11:49.177Z,0
2018-03-22T00:12:29.567Z,0
2018-03-22T00:13:09.973Z,0
2018-03-22T00:13:50.358Z,0
2018-03-22T00:14:30.736Z,0
2018-03-22T00:15:11.158Z,0
2018-03-22T00:15:51.586Z,0
2018-03-22T00:16:31.982Z,0
2018-03-22T00:17:12.373Z,0
2018-03-22T00:17:52.757Z,0
2018-03-22T00:18:33.227Z,0
2018-03-22T00:19:13.589Z,0
2018-03-22T00:19:54.032Z,0
2018-03-22T00:20:34.438Z,0
2018-03-22T00:21:14.840Z,0
2018-03-22T00:21:55.214Z,0
2018-03-22T00:22:35.633Z,0
2018-03-22T00:23:16.017Z,0
2018-03-22T00:23:56.397Z,0
2018-03-22T00:24:36.809Z,0
2018-03-22T00:25:17.166Z,0
2018-03-22T00:25:57.561Z,0
2018-03-22T00:26:37.952Z,0
2018-03-22T00:27:18.336Z,0
2018-03-22T00:27:58.744Z,0
2018-03-22T00:28:39.165Z,0
2018-03-22T00:29:19.580Z,0
2018-03-22T00:29:59.965Z,0
2018-03-22T00:30:40.399Z,0
2018-03-22T00:31:20.819Z,0
2018-03-22T00:32:01.211Z,0
2018-03-22T00:32:41.614Z,0
2018-03-22T00:33:21.993Z,0
2018-03-22T00:34:02.403Z,0
2018-03-22T00:34:42.774Z,0
2018-03-22T00:35:23.138Z,0
2018-03-22T00:40:56.253Z,0
2018-03-22T00:41:36.627Z,0
2018-03-22T00:42:17.032Z,0
2018-03-22T00:42:57.488Z,0
2018-03-22T00:43:37.878Z,0
2018-03-22T00:44:18.277Z,0
2018-03-22T00:44:58.622Z,0
2018-03-22T00:45:39.064Z,0
2018-03-22T00:46:19.419Z,0
2018-03-22T00:46:59.816Z,0
2018-03-22T00:47:40.263Z,0
2018-03-22T00:48:20.633Z,0
2018-03-22T00:49:01.039Z,0
2018-03-22T00:49:41.542Z,0
2018-03-22T00:50:21.918Z,0
2018-03-22T00:51:02.331Z,0
2018-03-22T00:51:42.707Z,0
2018-03-22T00:55:33.249Z,0
2018-03-22T00:56:13.626Z,0
2018-03-22T00:56:53.993Z,0
2018-03-22T00:57:34.440Z,0
2018-03-22T00:58:14.805Z,0
2018-03-22T00:58:55.218Z,0
2018-03-22T00:59:35.598Z,0
2018-03-22T01:00:16.024Z,0
2018-03-22T01:00:56.385Z,0
2018-03-22T01:01:36.776Z,0
2018-03-22T01:02:17.126Z,0
2018-03-22T01:02:57.557Z,0
2018-03-22T01:03:37.893Z,0
2018-03-22T01:04:18.323Z,0
2018-03-22T01:04:58.748Z,0
2018-03-22T01:05:39.139Z,0
2018-03-22T01:06:19.507Z,0
2018-03-22T01:06:59.920Z,0
2018-03-22T01:07:40.393Z,0
2018-03-22T01:08:20.783Z,0
2018-03-22T01:09:01.165Z,0
2018-03-22T01:09:41.545Z,0
2018-03-22T01:10:21.959Z,0
2018-03-22T01:11:02.357Z,0
2018-03-22T01:11:42.781Z,0
2018-03-22T01:12:23.212Z,0
2018-03-22T01:13:03.572Z,0
2018-03-22T01:13:43.947Z,0
2018-03-22T01:14:24.379Z,0
2018-03-22T01:15:04.780Z,0
2018-03-22T01:15:45.147Z,0
2018-03-22T01:16:25.609Z,0
2018-03-22T01:17:05.960Z,0
2018-03-22T01:17:46.350Z,0
2018-03-22T01:18:26.780Z,0
2018-03-22T01:19:07.169Z,0
2018-03-22T01:19:47.627Z,0
2018-03-22T01:20:28.030Z,0
2018-03-22T01:21:08.437Z,0
2018-03-22T01:21:48.794Z,0
2018-03-22T01:22:29.190Z,0
2018-03-22T01:23:09.580Z,0
2018-03-22T01:23:49.984Z,0
2018-03-22T01:24:30.390Z,0
2018-03-22T01:25:10.782Z,0
2018-03-22T01:25:51.133Z,0
2018-03-22T01:26:31.575Z,0
2018-03-22T01:27:11.972Z,0
2018-03-22T01:27:52.353Z,0
2018-03-22T01:28:32.755Z,0
2018-03-22T01:29:13.189Z,0
2018-03-22T01:29:53.563Z,0
2018-03-22T01:30:33.982Z,0
2018-03-22T01:31:14.377Z,0
2018-03-22T01:31:54.794Z,0
2018-03-22T01:32:35.174Z,0
2018-03-22T01:33:15.573Z,0
2018-03-22T01:33:55.939Z,0
2018-03-22T01:34:36.377Z,0
2018-03-22T01:35:16.770Z,0
2018-03-22T01:35:57.191Z,0
2018-03-22T01:36:37.610Z,0
2018-03-22T01:37:17.971Z,0
2018-03-22T01:37:58.365Z,0
2018-03-22T01:38:38.771Z,0
2018-03-22T01:39:19.156Z,0
2018-03-22T01:39:59.596Z,0
2018-03-22T01:40:39.981Z,0
2018-03-22T01:41:20.384Z,0
2018-03-22T01:42:00.840Z,0
2018-03-22T01:42:41.198Z,0
2018-03-22T01:43:21.578Z,0
2018-03-22T01:44:02.005Z,0
2018-03-22T01:44:42.406Z,0
2018-03-22T01:45:22.817Z,0
2018-03-22T01:46:03.177Z,0
2018-03-22T01:46:43.577Z,0
2018-03-22T01:47:23.986Z,0
2018-03-22T01:48:04.346Z,0
2018-03-22T01:48:44.732Z,0
2018-03-22T01:49:25.126Z,0
2018-03-22T01:50:05.521Z,0
2018-03-22T01:50:45.916Z,0
2018-03-22T01:51:26.269Z,0
2018-03-22T01:53:24.193Z,0
2018-03-22T01:54:04.614Z,0
2018-03-22T01:54:45.013Z,0
2018-03-22T01:55:25.380Z,0
2018-03-22T01:56:05.779Z,0
2018-03-22T01:56:46.177Z,0
2018-03-22T01:57:26.577Z,0
2018-03-22T01:58:06.982Z,0
2018-03-22T01:58:47.367Z,0
2018-03-22T01:59:27.761Z,0
2018-03-22T02:00:08.177Z,0
2018-03-22T02:00:48.545Z,0
2018-03-22T02:01:28.956Z,0
2018-03-22T02:02:09.350Z,0
2018-03-22T02:02:49.721Z,0
2018-03-22T02:03:30.110Z,0
2018-03-22T02:04:10.499Z,0
2018-03-22T02:04:50.937Z,0
2018-03-22T02:05:31.294Z,0
2018-03-22T02:06:11.728Z,0
2018-03-22T02:06:52.091Z,0
2018-03-22T02:07:32.509Z,0
2018-03-22T02:08:12.934Z,0
2018-03-22T02:08:53.319Z,0
2018-03-22T02:09:33.765Z,0
2018-03-22T02:10:14.098Z,0
2018-03-22T02:10:54.497Z,0
2018-03-22T02:11:34.961Z,0
2018-03-22T02:12:15.288Z,0
2018-03-22T02:12:55.723Z,0
2018-03-22T02:13:36.089Z,0
2018-03-22T02:14:16.514Z,0
2018-03-22T02:14:56.914Z,0
2018-03-22T02:15:37.291Z,0
2018-03-22T02:16:17.698Z,0
2018-03-22T02:16:58.096Z,0
2018-03-22T02:17:38.469Z,0
2018-03-22T02:18:18.834Z,0
2018-03-22T02:18:59.221Z,0
2018-03-22T02:19:39.688Z,0
2018-03-22T02:20:20.084Z,0
2018-03-22T02:21:00.437Z,0
2018-03-22T02:21:40.803Z,0
2018-03-22T02:22:21.208Z,0
2018-03-22T02:23:01.666Z,0
2018-03-22T02:23:42.049Z,0
2018-03-22T02:24:22.421Z,0
2018-03-22T02:25:02.834Z,0
2018-03-22T02:25:43.213Z,0
2018-03-22T02:26:23.645Z,0
2018-03-22T02:27:04.098Z,0
2018-03-22T02:27:44.536Z,0
2018-03-22T02:28:24.913Z,0
2018-03-22T02:29:05.300Z,0
2018-03-22T02:31:03.229Z,0
2018-03-22T02:31:43.610Z,0
2018-03-22T02:32:24.043Z,0
2018-03-22T02:33:04.419Z,0
2018-03-22T02:33:44.813Z,0
2018-03-22T02:34:25.227Z,0
2018-03-22T02:35:05.645Z,0
2018-03-22T02:35:46.025Z,0
2018-03-22T02:36:26.420Z,0
2018-03-22T02:37:06.840Z,0
2018-03-22T02:37:47.240Z,0
2018-03-22T02:38:27.634Z,0
2018-03-22T02:39:08.059Z,0
2018-03-22T02:39:48.438Z,0
2018-03-22T02:40:28.858Z,0
2018-03-22T02:41:09.253Z,0
2018-03-22T02:41:49.668Z,0
2018-03-22T02:42:30.034Z,0
2018-03-22T02:43:10.446Z,0
2018-03-22T02:43:50.855Z,0
2018-03-22T02:44:31.267Z,0
2018-03-22T02:45:11.644Z,0
2018-03-22T02:45:52.084Z,0
2018-03-22T02:46:32.464Z,0
2018-03-22T02:47:12.842Z,0
2018-03-22T02:47:53.273Z,0
2018-03-22T02:48:33.669Z,0
2018-03-22T02:49:14.033Z,0
2018-03-22T02:49:54.426Z,0
2018-03-22T02:50:34.856Z,0
2018-03-22T02:51:15.290Z,0
2018-03-22T02:51:55.619Z,0
2018-03-22T02:52:36.045Z,0
2018-03-22T02:53:16.409Z,0
2018-03-22T02:53:56.852Z,0
2018-03-22T02:54:37.255Z,0
2018-03-22T02:55:17.656Z,0
2018-03-22T02:55:58.100Z,0
2018-03-22T02:56:38.492Z,0
2018-03-22T02:57:18.872Z,0
2018-03-22T02:57:59.288Z,0
2018-03-22T02:58:39.670Z,0
2018-03-22T02:59:20.057Z,0
2018-03-22T03:00:00.478Z,0
2018-03-22T03:00:40.840Z,0
2018-03-22T03:01:21.251Z,0
2018-03-22T03:02:01.650Z,0
2018-03-22T03:02:42.112Z,0
2018-03-22T03:03:22.513Z,0
2018-03-22T03:04:02.935Z,0
2018-03-22T03:04:43.365Z,0
2018-03-22T03:05:23.767Z,0
2018-03-22T03:06:04.104Z,0
2018-03-22T03:06:44.502Z,0
2018-03-22T03:07:24.893Z,0
2018-03-22T03:08:05.308Z,0
2018-03-22T03:08:45.684Z,0
2018-03-22T03:09:26.105Z,0
2018-03-22T03:10:06.518Z,0
2018-03-22T03:10:46.892Z,0
2018-03-22T03:11:27.284Z,0
2018-03-22T03:12:07.712Z,0
2018-03-22T03:12:48.138Z,0
2018-03-22T03:13:28.510Z,0
2018-03-22T03:14:08.942Z,0
2018-03-22T03:14:49.294Z,0
2018-03-22T03:15:29.660Z,0
2018-03-22T03:16:10.092Z,0
2018-03-22T03:16:50.475Z,0
2018-03-22T03:17:30.912Z,0
2018-03-22T03:18:11.295Z,0
2018-03-22T03:18:51.771Z,0
2018-03-22T03:19:32.127Z,0
2018-03-22T03:20:12.531Z,0
2018-03-22T03:20:52.947Z,0
2018-03-22T03:21:33.380Z,0
2018-03-22T03:22:13.798Z,0
2018-03-22T03:22:54.206Z,0
2018-03-22T03:23:34.623Z,0
2018-03-22T03:24:15.060Z,0
2018-03-22T03:24:55.463Z,0
2018-03-22T03:25:35.847Z,0
2018-03-22T03:26:16.339Z,0
2018-03-22T03:26:56.673Z,0
2018-03-22T03:27:37.123Z,0
2018-03-22T03:28:17.485Z,0
2018-03-22T03:28:57.893Z,0
2018-03-22T03:29:38.311Z,0
2018-03-22T03:30:18.740Z,0
2018-03-22T03:30:59.128Z,0
2018-03-22T03:31:39.521Z,0
2018-03-22T03:32:19.891Z,0
2018-03-22T03:33:00.326Z,0
2018-03-22T03:33:40.731Z,0
2018-03-22T03:34:21.134Z,0
2018-03-22T03:35:01.504Z,0
2018-03-22T03:35:41.940Z,0
2018-03-22T03:36:22.345Z,0
2018-03-22T03:37:02.742Z,0
2018-03-22T03:37:43.134Z,0
2018-03-22T03:38:23.528Z,0
2018-03-22T03:39:03.927Z,0
2018-03-22T03:39:44.306Z,0
2018-03-22T03:40:24.681Z,0
2018-03-22T03:41:05.100Z,0
2018-03-22T03:41:45.496Z,0
2018-03-22T03:42:25.870Z,0
2018-03-22T03:43:06.296Z,0
2018-03-22T03:43:46.709Z,0
2018-03-22T03:44:27.084Z,0
2018-03-22T03:45:07.514Z,0
2018-03-22T03:45:47.864Z,0
2018-03-22T03:46:28.253Z,0
2018-03-22T03:47:08.639Z,0
2018-03-22T03:47:49.088Z,0
2018-03-22T03:48:29.454Z,0
2018-03-22T03:49:09.850Z,0
2018-03-22T03:49:50.266Z,0
2018-03-22T03:52:18.424Z,0
2018-03-22T03:52:58.831Z,0
2018-03-22T03:53:39.252Z,0
2018-03-22T03:54:19.660Z,0
2018-03-22T03:55:00.071Z,0
2018-03-22T03:55:40.460Z,0
2018-03-22T03:56:20.829Z,0
2018-03-22T03:57:01.197Z,0
2018-03-22T03:57:41.615Z,0
2018-03-22T03:58:22.006Z,0
2018-03-22T03:59:02.423Z,0
2018-03-22T03:59:42.799Z,0
2018-03-22T04:00:23.278Z,0
2018-03-22T04:01:03.662Z,0
2018-03-22T04:01:44.083Z,0
2018-03-22T04:02:24.442Z,0
2018-03-22T04:03:04.851Z,0
2018-03-22T04:03:45.234Z,0
2018-03-22T04:04:25.653Z,0
2018-03-22T04:05:06.019Z,0
2018-03-22T04:05:46.412Z,0
2018-03-22T04:06:26.803Z,0
2018-03-22T04:07:07.211Z,0
2018-03-22T04:51:38.442Z,0
2018-03-22T04:52:18.794Z,0
2018-03-22T04:52:59.212Z,0
2018-03-22T04:53:39.584Z,0
2018-03-22T04:54:20.011Z,0
2018-03-22T04:55:00.464Z,0
2018-03-22T04:55:40.797Z,0
2018-03-22T04:56:21.238Z,0
2018-03-22T04:57:01.626Z,0
2018-03-22T04:57:41.964Z,0
2018-03-22T04:58:22.385Z,0
2018-03-22T04:59:02.801Z,0
2018-03-22T04:59:43.275Z,0
2018-03-22T05:00:23.669Z,0
2018-03-22T05:01:04.068Z,0
2018-03-22T05:01:44.436Z,0
2018-03-22T05:02:24.883Z,0
2018-03-22T05:03:05.327Z,0
2018-03-22T05:03:45.711Z,0
2018-03-22T05:04:26.128Z,0
2018-03-22T05:05:06.499Z,0
2018-03-22T05:05:46.950Z,0
2018-03-22T05:06:27.377Z,0
2018-03-22T05:07:07.769Z,0
2018-03-22T05:07:48.126Z,0
2018-03-22T05:08:28.533Z,0
2018-03-22T05:09:08.969Z,0
2018-03-22T05:09:49.381Z,0
2018-03-22T05:10:29.776Z,0
2018-03-22T05:11:10.204Z,0
2018-03-22T05:11:50.573Z,0
2018-03-22T05:12:30.941Z,0
2018-03-22T05:13:11.333Z,0
2018-03-22T05:13:51.759Z,0
2018-03-22T05:14:32.170Z,0
2018-03-22T05:15:12.569Z,0
2018-03-22T05:15:52.959Z,0
2018-03-22T05:16:33.372Z,0
2018-03-22T05:17:13.772Z,0
2018-03-22T05:17:54.163Z,0
2018-03-22T05:18:34.573Z,0
2018-03-22T05:19:14.987Z,0
2018-03-22T05:19:55.349Z,0
2018-03-22T05:20:35.782Z,0
2018-03-22T05:21:16.176Z,0
2018-03-22T05:21:56.570Z,0
2018-03-22T05:22:37.434Z,0
2018-03-22T05:23:17.845Z,0
2018-03-22T05:23:58.263Z,0
2018-03-22T05:24:38.653Z,4
2018-03-22T05:25:19.038Z,4
2018-03-22T05:25:59.461Z,4
2018-03-22T05:26:39.876Z,4
2018-03-22T05:27:20.303Z,4
2018-03-22T05:28:00.724Z,4
2018-03-22T05:28:41.201Z,4
2018-03-22T05:29:28.467Z,4
2018-03-22T05:30:08.874Z,0
2018-03-22T05:30:49.290Z,0
2018-03-22T05:31:29.700Z,4
2018-03-22T05:32:10.149Z,4
2018-03-22T05:32:50.479Z,4
2018-03-22T05:33:30.887Z,4
2018-03-22T05:34:11.293Z,8
2018-03-22T05:34:51.701Z,4
2018-03-22T05:35:32.109Z,4
2018-03-22T05:36:12.530Z,4
2018-03-22T05:36:52.903Z,8
2018-03-22T05:37:33.358Z,4
2018-03-22T05:38:13.719Z,4
2018-03-22T05:38:54.097Z,8
2018-03-22T05:39:34.490Z,8
2018-03-22T05:40:14.927Z,8
2018-03-22T05:40:55.364Z,8
2018-03-22T05:41:35.781Z,12
2018-03-22T05:42:16.187Z,12
2018-03-22T05:42:56.626Z,16
2018-03-22T05:43:36.988Z,16
2018-03-22T05:44:17.390Z,16
2018-03-22T05:44:57.823Z,16
2018-03-22T05:45:38.228Z,20
2018-03-22T05:46:18.652Z,24
2018-03-22T05:46:59.042Z,20
2018-03-22T05:47:39.408Z,24
2018-03-22T05:48:19.823Z,28
2018-03-22T05:49:00.222Z,28
2018-03-22T05:49:40.648Z,32
2018-03-22T05:50:21.026Z,32
2018-03-22T05:51:01.448Z,36
2018-03-22T05:51:41.824Z,40
2018-03-22T05:52:22.219Z,40
2018-03-22T05:53:02.640Z,48
2018-03-22T05:53:43.067Z,52
2018-03-22T05:54:23.504Z,56
2018-03-22T05:55:03.913Z,56
2018-03-22T05:55:44.333Z,64
2018-03-22T05:56:24.743Z,68
2018-03-22T05:57:05.207Z,72
2018-03-22T05:57:45.587Z,76
2018-03-22T05:58:25.998Z,80
2018-03-22T05:59:06.410Z,80
2018-03-22T05:59:46.808Z,84
2018-03-22T06:00:27.288Z,88
2018-03-22T06:01:07.736Z,92
2018-03-22T06:01:48.072Z,96
2018-03-22T06:02:28.440Z,96
2018-03-22T06:03:08.854Z,92
2018-03-22T06:03:49.222Z,88
2018-03-22T06:04:29.621Z,88
2018-03-22T06:05:10.021Z,80
2018-03-22T06:05:50.412Z,80
2018-03-22T06:06:30.773Z,76
2018-03-22T06:07:11.231Z,72
2018-03-22T06:07:51.652Z,68
2018-03-22T06:08:32.058Z,64
2018-03-22T06:09:12.534Z,64
2018-03-22T06:09:52.886Z,60
2018-03-22T06:10:33.312Z,60
2018-03-22T06:11:13.726Z,56
2018-03-22T06:11:54.178Z,52
2018-03-22T06:12:34.571Z,48
2018-03-22T06:13:14.979Z,44
2018-03-22T06:13:55.403Z,40
2018-03-22T06:14:35.881Z,36
2018-03-22T06:15:16.265Z,32
2018-03-22T06:15:56.757Z,32
2018-03-22T06:16:37.189Z,32
2018-03-22T06:17:17.561Z,32
2018-03-22T06:17:57.978Z,36
2018-03-22T06:18:38.398Z,36
2018-03-22T06:19:18.791Z,40
2018-03-22T06:19:59.190Z,40
2018-03-22T06:20:39.619Z,40
2018-03-22T06:21:20.283Z,40
2018-03-22T06:22:00.627Z,40
2018-03-22T06:22:41.027Z,44
2018-03-22T06:23:21.522Z,44
2018-03-22T06:24:01.892Z,40
2018-03-22T06:24:42.332Z,44
2018-03-22T06:25:23.479Z,44
2018-03-22T06:26:03.905Z,48
2018-03-22T06:26:44.275Z,52
2018-03-22T06:27:24.771Z,56
2018-03-22T06:28:05.171Z,56
2018-03-22T06:28:45.630Z,52
2018-03-22T06:29:26.020Z,56
2018-03-22T06:30:06.434Z,52
2018-03-22T06:30:46.876Z,52
2018-03-22T06:31:27.196Z,44
2018-03-22T06:32:07.863Z,44
2018-03-22T06:32:48.293Z,48
2018-03-22T06:33:28.846Z,44
2018-03-22T06:34:09.577Z,44
2018-03-22T06:34:50.502Z,44
2018-03-22T06:35:31.015Z,48
2018-03-22T06:37:53.158Z,56
2018-03-22T06:38:33.557Z,60
2018-03-22T06:39:13.966Z,64
2018-03-22T06:39:54.403Z,72
2018-03-22T06:40:34.737Z,76
2018-03-22T06:41:15.940Z,72
2018-03-22T06:41:57.715Z,64
2018-03-22T06:42:41.368Z,64
2018-03-22T06:43:24.552Z,64
2018-03-22T06:44:05.273Z,64
2018-03-22T06:44:45.609Z,64
2018-03-22T06:45:26.860Z,64
2018-03-22T06:46:07.553Z,68
2018-03-22T06:46:50.352Z,80
2018-03-22T06:47:34.935Z,84
2018-03-22T06:48:18.157Z,80
2018-03-22T06:49:05.305Z,84
2018-03-22T06:49:48.535Z,72
2018-03-22T06:50:29.337Z,68
2018-03-22T06:51:11.293Z,76
2018-03-22T06:51:53.753Z,64
2018-03-22T06:52:34.051Z,60
2018-03-22T06:53:14.920Z,64
2018-03-22T06:53:56.697Z,68
2018-03-22T06:54:38.480Z,64
2018-03-22T06:55:19.253Z,80
2018-03-22T06:56:02.752Z,88
2018-03-22T06:56:43.829Z,88
2018-03-22T06:57:25.138Z,92
2018-03-22T06:58:05.648Z,96
2018-03-22T06:58:47.107Z,104
2018-03-22T06:59:27.062Z,100
2018-03-22T07:00:09.057Z,100
2018-03-22T07:00:49.932Z,124
2018-03-22T07:01:30.523Z,108
2018-03-22T07:02:11.150Z,112
2018-03-22T07:02:53.503Z,108
2018-03-22T07:03:34.833Z,96
2018-03-22T07:04:15.548Z,96
2018-03-22T07:04:56.150Z,104
2018-03-22T07:05:37.694Z,108
2018-03-22T07:06:18.535Z,108
2018-03-22T07:06:59.001Z,112
2018-03-22T07:07:41.147Z,100
2018-03-22T07:08:25.386Z,116
2018-03-22T07:09:05.608Z,124
2018-03-22T07:09:46.463Z,136
2018-03-22T07:10:27.734Z,136
2018-03-22T07:11:08.304Z,144
2018-03-22T07:11:49.209Z,188
2018-03-22T07:12:32.239Z,188
2018-03-22T07:13:12.657Z,160
2018-03-22T07:13:54.767Z,160
2018-03-22T07:14:35.249Z,156
2018-03-22T07:15:15.717Z,156
2018-03-22T07:15:57.633Z,164
2018-03-22T07:16:38.706Z,168
2018-03-22T07:17:19.907Z,168
2018-03-22T07:18:00.422Z,192
2018-03-22T07:18:41.648Z,168
2018-03-22T07:19:22.858Z,160
2018-03-22T07:20:05.207Z,160
2018-03-22T07:20:46.763Z,164
2018-03-22T07:21:27.638Z,164
2018-03-22T07:22:07.842Z,164
2018-03-22T07:22:49.092Z,172
2018-03-22T07:23:32.285Z,192
2018-03-22T07:24:13.746Z,180
2018-03-22T07:24:55.947Z,164
2018-03-22T07:25:36.439Z,168
2018-03-22T07:26:18.004Z,192
2018-03-22T07:26:58.584Z,188
2018-03-22T07:27:40.062Z,176
2018-03-22T07:28:30.687Z,180
2018-03-22T07:29:13.421Z,208
2018-03-22T07:29:53.765Z,192
2018-03-22T07:30:34.327Z,200
2018-03-22T07:31:17.246Z,164
2018-03-22T07:31:58.754Z,156
2018-03-22T07:32:39.766Z,148
2018-03-22T07:33:20.554Z,184
2018-03-22T07:34:01.909Z,152
2018-03-22T07:34:42.330Z,164
2018-03-22T07:35:24.082Z,196
2018-03-22T07:36:04.476Z,184
2018-03-22T07:36:45.781Z,204
2018-03-22T07:37:26.139Z,280
2018-03-22T07:38:07.577Z,332
2018-03-22T07:38:49.408Z,272
2018-03-22T07:39:30.151Z,380
2018-03-22T07:40:12.723Z,388
2018-03-22T07:40:53.448Z,340
2018-03-22T07:41:34.228Z,352
2018-03-22T07:42:14.655Z,396
2018-03-22T07:42:55.424Z,400
2018-03-22T07:43:40.963Z,372
2018-03-22T07:44:30.177Z,372
2018-03-22T07:45:11.200Z,368
2018-03-22T07:45:56.660Z,348
2018-03-22T07:46:37.261Z,396
2018-03-22T07:47:18.634Z,368
2018-03-22T07:47:59.923Z,300
2018-03-22T07:48:41.176Z,340
2018-03-22T07:49:23.795Z,364
2018-03-22T07:50:06.750Z,400
2018-03-22T07:50:49.047Z,372
2018-03-22T07:51:30.170Z,392
2018-03-22T07:52:11.106Z,400
2018-03-22T07:52:53.717Z,432
2018-03-22T07:53:34.375Z,436
2018-03-22T07:54:16.177Z,484
2018-03-22T07:54:57.245Z,420
2018-03-22T07:55:38.301Z,472
2018-03-22T07:56:20.764Z,468
2018-03-22T07:57:01.355Z,416
2018-03-22T07:57:42.570Z,380
2018-03-22T07:58:23.220Z,412
2018-03-22T07:59:03.918Z,456
2018-03-22T07:59:44.663Z,412
2018-03-22T08:00:25.331Z,376
2018-03-22T08:01:07.571Z,356
2018-03-22T08:08:03.965Z,444
2018-03-22T08:08:45.788Z,460
2018-03-22T08:09:26.637Z,524
2018-03-22T08:10:07.605Z,476
2018-03-22T08:10:48.147Z,448
2018-03-22T08:11:29.647Z,440
2018-03-22T08:12:11.343Z,468
2018-03-22T08:12:52.814Z,452
2018-03-22T08:13:33.249Z,404
2018-03-22T08:14:13.820Z,420
2018-03-22T08:14:54.566Z,388
2018-03-22T08:15:35.976Z,368
2018-03-22T08:16:16.599Z,332
2018-03-22T08:16:56.934Z,332
2018-03-22T08:17:37.501Z,300
2018-03-22T08:18:18.060Z,276
2018-03-22T08:18:59.126Z,284
2018-03-22T08:19:40.528Z,292
2018-03-22T08:20:20.867Z,280
2018-03-22T08:21:01.665Z,256
2018-03-22T08:21:42.361Z,232
2018-03-22T08:22:22.797Z,244
2018-03-22T08:23:03.203Z,276
2018-03-22T08:23:44.202Z,304
2018-03-22T08:24:25.690Z,336
2018-03-22T08:25:06.398Z,324
2018-03-22T08:25:46.936Z,340
2018-03-22T08:26:27.305Z,332
2018-03-22T08:27:08.059Z,344
2018-03-22T08:27:49.206Z,308
2018-03-22T08:28:31.578Z,280
2018-03-22T08:29:11.896Z,320
2018-03-22T08:29:52.704Z,300
2018-03-22T08:30:33.257Z,288
2018-03-22T08:31:14.623Z,340
2018-03-22T08:31:54.778Z,336
2018-03-22T08:32:35.254Z,356
2018-03-22T08:33:16.278Z,352
2018-03-22T08:33:57.746Z,304
2018-03-22T08:34:39.612Z,260
2018-03-22T08:35:21.076Z,268
2018-03-22T08:36:02.259Z,272
2018-03-22T08:36:42.652Z,280
2018-03-22T08:37:23.073Z,284
2018-03-22T08:38:04.495Z,308
2018-03-22T08:38:45.804Z,352
2018-03-22T08:39:26.261Z,396
2018-03-22T08:40:06.791Z,388
2018-03-22T08:40:47.282Z,424
2018-03-22T08:41:27.875Z,448
2018-03-22T08:42:08.413Z,404
2018-03-22T08:42:48.876Z,392
2018-03-22T08:43:29.292Z,396
2018-03-22T08:44:10.782Z,408
2018-03-22T08:44:50.895Z,404
2018-03-22T08:45:33.977Z,348
2018-03-22T08:46:14.425Z,348
2018-03-22T08:46:54.892Z,384
2018-03-22T08:47:36.569Z,372
2018-03-22T08:48:17.011Z,356
2018-03-22T08:48:57.329Z,368
2018-03-22T08:49:39.737Z,364
2018-03-22T08:50:22.160Z,352
2018-03-22T08:51:02.577Z,308
2018-03-22T08:51:43.232Z,308
2018-03-22T08:52:23.639Z,328
2018-03-22T08:53:04.805Z,360
2018-03-22T08:53:45.223Z,472
2018-03-22T08:54:25.693Z,496
2018-03-22T08:55:06.124Z,580
2018-03-22T08:55:47.475Z,552
2018-03-22T08:56:27.992Z,504
2018-03-22T08:57:08.328Z,536
2018-03-22T08:57:48.769Z,544
2018-03-22T08:58:29.950Z,540
2018-03-22T08:59:11.152Z,548
2018-03-22T08:59:51.507Z,516
2018-03-22T09:00:33.364Z,484
2018-03-22T09:01:13.759Z,416
2018-03-22T09:01:54.967Z,416
2018-03-22T09:02:36.319Z,420
2018-03-22T09:03:17.381Z,464
2018-03-22T09:03:57.890Z,440
2018-03-22T09:04:38.826Z,444
2018-03-22T09:05:19.304Z,456
2018-03-22T09:06:00.455Z,436
2018-03-22T09:06:40.926Z,456
2018-03-22T09:07:21.508Z,488
2018-03-22T09:08:02.133Z,488
2018-03-22T09:08:42.597Z,472
2018-03-22T09:09:26.260Z,460
2018-03-22T09:10:06.754Z,428
2018-03-22T09:10:47.157Z,416
2018-03-22T09:11:27.639Z,400
2018-03-22T09:12:09.130Z,436
2018-03-22T09:12:49.514Z,400
2018-03-22T09:13:30.627Z,416
2018-03-22T09:14:11.082Z,488
2018-03-22T09:14:51.430Z,492
2018-03-22T09:15:31.922Z,508
2018-03-22T09:16:12.253Z,464
2018-03-22T09:16:52.717Z,496
2018-03-22T09:17:33.269Z,460
2018-03-22T09:18:13.733Z,476
2018-03-22T09:18:54.070Z,460
2018-03-22T09:19:34.583Z,448
2018-03-22T09:20:16.094Z,460
2018-03-22T09:20:57.238Z,468
2018-03-22T09:21:37.709Z,468
2018-03-22T09:22:18.097Z,500
2018-03-22T09:22:58.705Z,544
2018-03-22T09:23:39.088Z,620
2018-03-22T09:24:19.500Z,576
2018-03-22T09:25:00.039Z,572
2018-03-22T09:25:40.434Z,604
2018-03-22T09:26:22.027Z,588
2018-03-22T09:27:02.882Z,460
2018-03-22T09:27:43.283Z,484
2018-03-22T09:28:23.652Z,520
2018-03-22T09:29:04.095Z,560
2018-03-22T09:29:44.545Z,656
2018-03-22T09:30:24.952Z,632
2018-03-22T09:31:05.418Z,620
2018-03-22T09:31:46.628Z,564
2018-03-22T09:32:27.216Z,452
2018-03-22T09:33:08.229Z,412
2018-03-22T09:33:48.651Z,400
2018-03-22T09:34:29.952Z,432
2018-03-22T09:35:10.545Z,480
2018-03-22T09:35:55.225Z,504
2018-03-22T09:36:35.597Z,564
2018-03-22T09:37:16.728Z,572
2018-03-22T09:37:57.311Z,488
2018-03-22T09:38:38.701Z,516
2018-03-22T09:39:19.056Z,520
2018-03-22T09:39:59.569Z,512
2018-03-22T09:40:40.010Z,488
2018-03-22T09:41:21.426Z,524
2018-03-22T09:42:01.829Z,556
2018-03-22T09:42:42.282Z,564
2018-03-22T09:43:22.801Z,516
2018-03-22T09:44:03.245Z,452
2018-03-22T09:44:44.656Z,436
2018-03-22T09:45:26.213Z,428
2018-03-22T09:46:06.795Z,404
2018-03-22T09:46:47.067Z,396
2018-03-22T09:47:28.589Z,468
2018-03-22T09:48:10.151Z,444
2018-03-22T09:48:50.677Z,456
2018-03-22T09:49:31.274Z,452
2018-03-22T09:50:11.652Z,428
2018-03-22T09:50:52.974Z,404
2018-03-22T09:51:33.666Z,420
2018-03-22T09:52:15.194Z,428
2018-03-22T09:52:55.764Z,452
2018-03-22T09:53:36.864Z,460
2018-03-22T09:54:20.932Z,440
2018-03-22T09:55:01.571Z,452
2018-03-22T09:55:42.208Z,504
2018-03-22T09:56:22.677Z,548
2018-03-22T09:57:03.383Z,524
2018-03-22T09:57:43.960Z,524
2018-03-22T09:58:24.427Z,552
2018-03-22T09:59:06.130Z,516
2018-03-22T09:59:46.792Z,480
2018-03-22T10:00:26.718Z,508
2018-03-22T10:01:07.440Z,536
2018-03-22T10:01:49.077Z,528
2018-03-22T10:02:28.899Z,528
2018-03-22T10:03:10.343Z,500
2018-03-22T10:03:55.468Z,464
2018-03-22T10:04:37.296Z,448
2018-03-22T10:05:18.208Z,408
2018-03-22T10:05:58.096Z,404
2018-03-22T10:06:38.596Z,444
2018-03-22T10:07:20.168Z,464
2018-03-22T10:08:03.122Z,416
2018-03-22T10:08:44.558Z,412
2018-03-22T10:46:51.515Z,816
2018-03-22T10:47:31.532Z,896
2018-03-22T10:48:12.521Z,900
2018-03-22T10:48:52.960Z,916
2018-03-22T10:49:34.000Z,808
2018-03-22T10:50:14.838Z,876
2018-03-22T10:50:55.514Z,964
2018-03-22T10:51:36.608Z,916
2018-03-22T10:52:16.914Z,916
2018-03-22T10:52:58.291Z,1064
2018-03-22T10:53:38.738Z,988
2018-03-22T10:54:19.809Z,1076
2018-03-22T10:55:00.587Z,1208
2018-03-22T10:55:41.135Z,1076
2018-03-22T10:56:22.137Z,928
2018-03-22T10:57:02.477Z,892
2018-03-22T10:57:43.457Z,1048
2018-03-22T10:58:24.352Z,924
2018-03-22T10:59:06.414Z,888
2018-03-22T10:59:46.766Z,772
2018-03-22T11:00:28.713Z,664
2018-03-22T11:01:09.609Z,740
2018-03-22T11:01:50.957Z,944
2018-03-22T11:02:31.949Z,1396
2018-03-22T11:03:13.195Z,1168
2018-03-22T11:03:55.632Z,1116
2018-03-22T11:04:35.707Z,1228
2018-03-22T11:05:16.524Z,944
2018-03-22T11:05:58.352Z,976
2018-03-22T11:06:42.271Z,1024
2018-03-22T11:07:25.384Z,984
2018-03-22T11:08:05.820Z,1180
2018-03-22T11:08:53.504Z,948
2018-03-22T11:09:37.163Z,1220
2018-03-22T11:10:18.744Z,1128
2018-03-22T11:11:01.488Z,896
2018-03-22T11:11:42.027Z,964
2018-03-22T11:12:22.622Z,948
2018-03-22T11:13:03.753Z,844
2018-03-22T11:13:44.224Z,796
2018-03-22T11:14:24.876Z,1424
2018-03-22T11:15:05.342Z,1588
2018-03-22T11:15:47.061Z,1744
2018-03-22T11:16:27.513Z,1464
2018-03-22T11:17:08.024Z,1264
2018-03-22T11:17:48.328Z,1044
2018-03-22T11:18:30.282Z,988
2018-03-22T11:19:11.176Z,852
2018-03-22T11:19:51.993Z,932
2018-03-22T11:20:32.547Z,1024
2018-03-22T11:21:12.902Z,1244
2018-03-22T11:21:58.846Z,1088
2018-03-22T11:22:39.051Z,1272
2018-03-22T11:23:19.811Z,1440
2018-03-22T11:24:00.257Z,1860
2018-03-22T11:24:41.567Z,1516